sensor_id;sensor_type;location;lat;lon;timestamp;P1;durP1;ratioP1;P2;durP2;ratioP2
10637;SDS011;47007;49.252;8.904;2023-11-19T00:00:18;4.80;;;2.42;;
10637;SDS011;47007;49.252;8.904;2023-11-19T00:01:00;3.22;;;2.42;;
10637;SDS011;47007;49.252;8.904;2023-11-19T00:01:42;2.50;;;2.20;;
10637;SDS011;47007;49.252;8.904;2023-11-19T00:02:24;2.60;;;1.80;;
10637;SDS011;47007;49.252;8.904;2023-11-19T00:03:06;2.25;;;1.90;;
10637;SDS011;47007;49.252;8.904;2023-11-19T00:03:48;2.03;;;1.65;;
10637;SDS011;47007;49.252;8.904;2023-11-19T00:04:32;2.85;;;1.60;;
10637;SDS011;47007;49.252;8.904;2023-11-19T00:05:14;1.88;;;1.50;;
10637;SDS011;47007;49.252;8.904;2023-11-19T00:05:56;1.40;;;1.30;;
10637;SDS011;47007;49.252;8.904;2023-11-19T00:06:38;1.80;;;1.40;;
10637;SDS011;47007;49.252;8.904;2023-11-19T00:07:19;2.90;;;1.65;;
10637;SDS011;47007;49.252;8.904;2023-11-19T00:08:02;2.22;;;1.27;;
10637;SDS011;47007;49.252;8.904;2023-11-19T00:08:44;1.40;;;1.30;;
10637;SDS011;47007;49.252;8.904;2023-11-19T00:09:25;2.92;;;1.73;;
10637;SDS011;47007;49.252;8.904;2023-11-19T00:10:14;2.83;;;1.73;;
10637;SDS011;47007;49.252;8.904;2023-11-19T00:11:06;1.60;;;1.20;;
10637;SDS011;47007;49.252;8.904;2023-11-19T00:11:48;2.05;;;1.40;;
10637;SDS011;47007;49.252;8.904;2023-11-19T00:12:33;1.50;;;1.40;;
10637;SDS011;47007;49.252;8.904;2023-11-19T00:13:15;1.67;;;1.40;;
10637;SDS011;47007;49.252;8.904;2023-11-19T00:13:57;1.58;;;1.48;;
10637;SDS011;47007;49.252;8.904;2023-11-19T00:14:39;1.75;;;1.40;;
10637;SDS011;47007;49.252;8.904;2023-11-19T00:15:22;1.67;;;1.20;;
10637;SDS011;47007;49.252;8.904;2023-11-19T00:16:05;2.30;;;1.30;;
10637;SDS011;47007;49.252;8.904;2023-11-19T00:16:49;1.33;;;1.23;;
10637;SDS011;47007;49.252;8.904;2023-11-19T00:17:32;1.30;;;1.20;;
10637;SDS011;47007;49.252;8.904;2023-11-19T00:18:14;2.40;;;1.70;;
10637;SDS011;47007;49.252;8.904;2023-11-19T00:18:56;1.40;;;1.30;;
10637;SDS011;47007;49.252;8.904;2023-11-19T00:19:38;1.98;;;1.50;;
10637;SDS011;47007;49.252;8.904;2023-11-19T00:20:20;1.35;;;1.02;;
10637;SDS011;47007;49.252;8.904;2023-11-19T00:21:03;1.40;;;1.30;;
10637;SDS011;47007;49.252;8.904;2023-11-19T00:21:45;1.77;;;1.17;;
10637;SDS011;47007;49.252;8.904;2023-11-19T00:22:27;1.42;;;1.33;;
10637;SDS011;47007;49.252;8.904;2023-11-19T00:23:09;2.63;;;1.65;;
10637;SDS011;47007;49.252;8.904;2023-11-19T00:23:51;1.67;;;1.40;;
10637;SDS011;47007;49.252;8.904;2023-11-19T00:24:33;1.23;;;1.13;;
10637;SDS011;47007;49.252;8.904;2023-11-19T00:25:15;1.85;;;1.40;;
10637;SDS011;47007;49.252;8.904;2023-11-19T00:25:58;1.80;;;1.70;;
10637;SDS011;47007;49.252;8.904;2023-11-19T00:26:40;2.25;;;1.60;;
10637;SDS011;47007;49.252;8.904;2023-11-19T00:27:21;1.63;;;1.52;;
10637;SDS011;47007;49.252;8.904;2023-11-19T00:28:03;1.50;;;1.40;;
10637;SDS011;47007;49.252;8.904;2023-11-19T00:28:45;1.73;;;1.42;;
10637;SDS011;47007;49.252;8.904;2023-11-19T00:29:29;1.75;;;1.65;;
10637;SDS011;47007;49.252;8.904;2023-11-19T00:30:11;1.77;;;1.67;;
10637;SDS011;47007;49.252;8.904;2023-11-19T00:30:53;1.50;;;1.40;;
10637;SDS011;47007;49.252;8.904;2023-11-19T00:31:35;1.80;;;1.70;;
10637;SDS011;47007;49.252;8.904;2023-11-19T00:32:18;1.85;;;1.75;;
10637;SDS011;47007;49.252;8.904;2023-11-19T00:33:00;2.80;;;1.80;;
10637;SDS011;47007;49.252;8.904;2023-11-19T00:33:41;3.10;;;2.00;;
10637;SDS011;47007;49.252;8.904;2023-11-19T00:34:26;1.95;;;1.85;;
10637;SDS011;47007;49.252;8.904;2023-11-19T00:35:08;2.40;;;2.20;;
10637;SDS011;47007;49.252;8.904;2023-11-19T00:35:56;2.75;;;2.10;;
10637;SDS011;47007;49.252;8.904;2023-11-19T00:36:38;2.20;;;2.00;;
10637;SDS011;47007;49.252;8.904;2023-11-19T00:37:20;2.10;;;1.85;;
10637;SDS011;47007;49.252;8.904;2023-11-19T00:38:02;3.45;;;2.00;;
10637;SDS011;47007;49.252;8.904;2023-11-19T00:38:45;2.05;;;1.88;;
10637;SDS011;47007;49.252;8.904;2023-11-19T00:39:27;2.35;;;2.15;;
10637;SDS011;47007;49.252;8.904;2023-11-19T00:40:09;2.00;;;1.80;;
10637;SDS011;47007;49.252;8.904;2023-11-19T00:40:52;2.08;;;1.90;;
10637;SDS011;47007;49.252;8.904;2023-11-19T00:41:34;1.77;;;1.67;;
10637;SDS011;47007;49.252;8.904;2023-11-19T00:42:16;2.22;;;1.88;;
10637;SDS011;47007;49.252;8.904;2023-11-19T00:42:57;1.80;;;1.70;;
10637;SDS011;47007;49.252;8.904;2023-11-19T00:43:41;2.30;;;2.10;;
10637;SDS011;47007;49.252;8.904;2023-11-19T00:44:23;1.80;;;1.70;;
10637;SDS011;47007;49.252;8.904;2023-11-19T00:45:05;2.95;;;2.08;;
10637;SDS011;47007;49.252;8.904;2023-11-19T00:45:51;2.25;;;1.95;;
10637;SDS011;47007;49.252;8.904;2023-11-19T00:46:32;2.50;;;2.15;;
10637;SDS011;47007;49.252;8.904;2023-11-19T00:47:14;2.00;;;1.90;;
10637;SDS011;47007;49.252;8.904;2023-11-19T00:47:56;2.25;;;2.05;;
10637;SDS011;47007;49.252;8.904;2023-11-19T00:48:40;2.13;;;1.77;;
10637;SDS011;47007;49.252;8.904;2023-11-19T00:49:22;2.10;;;1.98;;
10637;SDS011;47007;49.252;8.904;2023-11-19T00:50:04;2.03;;;1.83;;
10637;SDS011;47007;49.252;8.904;2023-11-19T00:50:47;2.05;;;1.95;;
10637;SDS011;47007;49.252;8.904;2023-11-19T00:51:28;2.20;;;1.70;;
10637;SDS011;47007;49.252;8.904;2023-11-19T00:52:12;2.00;;;1.90;;
10637;SDS011;47007;49.252;8.904;2023-11-19T00:52:54;1.90;;;1.80;;
10637;SDS011;47007;49.252;8.904;2023-11-19T00:53:36;2.05;;;1.85;;
10637;SDS011;47007;49.252;8.904;2023-11-19T00:54:17;4.03;;;1.83;;
10637;SDS011;47007;49.252;8.904;2023-11-19T00:54:59;2.05;;;1.85;;
10637;SDS011;47007;49.252;8.904;2023-11-19T00:55:41;1.70;;;1.60;;
10637;SDS011;47007;49.252;8.904;2023-11-19T00:56:26;1.98;;;1.83;;
10637;SDS011;47007;49.252;8.904;2023-11-19T00:57:09;2.75;;;2.00;;
10637;SDS011;47007;49.252;8.904;2023-11-19T00:57:51;1.95;;;1.85;;
10637;SDS011;47007;49.252;8.904;2023-11-19T00:58:33;1.95;;;1.85;;
10637;SDS011;47007;49.252;8.904;2023-11-19T00:59:15;2.53;;;2.05;;
10637;SDS011;47007;49.252;8.904;2023-11-19T00:59:56;2.33;;;1.83;;
10637;SDS011;47007;49.252;8.904;2023-11-19T01:00:38;2.10;;;1.90;;
10637;SDS011;47007;49.252;8.904;2023-11-19T01:01:21;2.20;;;2.00;;
10637;SDS011;47007;49.252;8.904;2023-11-19T01:02:03;2.15;;;1.70;;
10637;SDS011;47007;49.252;8.904;2023-11-19T01:02:47;1.85;;;1.70;;
10637;SDS011;47007;49.252;8.904;2023-11-19T01:03:32;1.92;;;1.83;;
10637;SDS011;47007;49.252;8.904;2023-11-19T01:04:14;1.73;;;1.55;;
10637;SDS011;47007;49.252;8.904;2023-11-19T01:04:57;1.85;;;1.75;;
10637;SDS011;47007;49.252;8.904;2023-11-19T01:05:38;2.97;;;1.65;;
10637;SDS011;47007;49.252;8.904;2023-11-19T01:06:30;1.90;;;1.80;;
10637;SDS011;47007;49.252;8.904;2023-11-19T01:07:12;1.88;;;1.77;;
10637;SDS011;47007;49.252;8.904;2023-11-19T01:07:54;3.30;;;1.73;;
10637;SDS011;47007;49.252;8.904;2023-11-19T01:08:36;2.13;;;2.03;;
10637;SDS011;47007;49.252;8.904;2023-11-19T01:09:18;2.25;;;2.08;;
10637;SDS011;47007;49.252;8.904;2023-11-19T01:10:00;1.98;;;1.80;;
10637;SDS011;47007;49.252;8.904;2023-11-19T01:10:42;2.53;;;1.83;;
10637;SDS011;47007;49.252;8.904;2023-11-19T01:11:24;2.08;;;1.85;;
10637;SDS011;47007;49.252;8.904;2023-11-19T01:12:06;1.70;;;1.60;;
10637;SDS011;47007;49.252;8.904;2023-11-19T01:12:48;1.80;;;1.70;;
10637;SDS011;47007;49.252;8.904;2023-11-19T01:13:30;1.70;;;1.60;;
10637;SDS011;47007;49.252;8.904;2023-11-19T01:14:12;1.88;;;1.67;;
10637;SDS011;47007;49.252;8.904;2023-11-19T01:14:53;1.52;;;1.42;;
10637;SDS011;47007;49.252;8.904;2023-11-19T01:15:36;1.70;;;1.60;;
10637;SDS011;47007;49.252;8.904;2023-11-19T01:16:18;1.60;;;1.50;;
10637;SDS011;47007;49.252;8.904;2023-11-19T01:17:01;1.85;;;1.75;;
10637;SDS011;47007;49.252;8.904;2023-11-19T01:17:43;1.60;;;1.50;;
10637;SDS011;47007;49.252;8.904;2023-11-19T01:18:28;2.20;;;2.00;;
10637;SDS011;47007;49.252;8.904;2023-11-19T01:19:10;1.92;;;1.83;;
10637;SDS011;47007;49.252;8.904;2023-11-19T01:19:58;1.92;;;1.80;;
10637;SDS011;47007;49.252;8.904;2023-11-19T01:20:40;1.60;;;1.50;;
10637;SDS011;47007;49.252;8.904;2023-11-19T01:21:22;1.85;;;1.75;;
10637;SDS011;47007;49.252;8.904;2023-11-19T01:22:03;1.80;;;1.45;;
10637;SDS011;47007;49.252;8.904;2023-11-19T01:22:45;2.13;;;1.90;;
10637;SDS011;47007;49.252;8.904;2023-11-19T01:23:27;1.90;;;1.60;;
10637;SDS011;47007;49.252;8.904;2023-11-19T01:24:09;1.80;;;1.55;;
10637;SDS011;47007;49.252;8.904;2023-11-19T01:24:52;1.95;;;1.85;;
10637;SDS011;47007;49.252;8.904;2023-11-19T01:25:33;1.65;;;1.55;;
10637;SDS011;47007;49.252;8.904;2023-11-19T01:26:16;1.60;;;1.50;;
10637;SDS011;47007;49.252;8.904;2023-11-19T01:26:59;1.60;;;1.50;;
10637;SDS011;47007;49.252;8.904;2023-11-19T01:27:41;2.42;;;1.67;;
10637;SDS011;47007;49.252;8.904;2023-11-19T01:28:23;1.73;;;1.63;;
10637;SDS011;47007;49.252;8.904;2023-11-19T01:29:05;1.73;;;1.63;;
10637;SDS011;47007;49.252;8.904;2023-11-19T01:29:48;1.45;;;1.35;;
10637;SDS011;47007;49.252;8.904;2023-11-19T01:30:30;1.88;;;1.77;;
10637;SDS011;47007;49.252;8.904;2023-11-19T01:31:12;1.98;;;1.80;;
10637;SDS011;47007;49.252;8.904;2023-11-19T01:31:56;1.77;;;1.65;;
10637;SDS011;47007;49.252;8.904;2023-11-19T01:32:39;2.20;;;2.00;;
10637;SDS011;47007;49.252;8.904;2023-11-19T01:33:22;2.00;;;1.80;;
10637;SDS011;47007;49.252;8.904;2023-11-19T01:34:03;2.67;;;2.33;;
10637;SDS011;47007;49.252;8.904;2023-11-19T01:34:45;2.00;;;1.80;;
10637;SDS011;47007;49.252;8.904;2023-11-19T01:35:27;2.20;;;2.00;;
10637;SDS011;47007;49.252;8.904;2023-11-19T01:36:09;1.92;;;1.83;;
10637;SDS011;47007;49.252;8.904;2023-11-19T01:36:54;1.75;;;1.65;;
10637;SDS011;47007;49.252;8.904;2023-11-19T01:37:35;2.15;;;1.95;;
10637;SDS011;47007;49.252;8.904;2023-11-19T01:38:17;2.22;;;2.03;;
10637;SDS011;47007;49.252;8.904;2023-11-19T01:38:59;2.10;;;2.00;;
10637;SDS011;47007;49.252;8.904;2023-11-19T01:39:44;2.42;;;1.92;;
10637;SDS011;47007;49.252;8.904;2023-11-19T01:40:26;1.90;;;1.80;;
10637;SDS011;47007;49.252;8.904;2023-11-19T01:41:08;2.20;;;2.10;;
10637;SDS011;47007;49.252;8.904;2023-11-19T01:41:50;2.40;;;2.20;;
10637;SDS011;47007;49.252;8.904;2023-11-19T01:42:38;2.03;;;1.92;;
10637;SDS011;47007;49.252;8.904;2023-11-19T01:44:15;2.03;;;1.92;;
10637;SDS011;47007;49.252;8.904;2023-11-19T01:44:58;1.58;;;1.48;;
10637;SDS011;47007;49.252;8.904;2023-11-19T01:45:40;2.30;;;2.00;;
10637;SDS011;47007;49.252;8.904;2023-11-19T01:46:22;1.98;;;1.88;;
10637;SDS011;47007;49.252;8.904;2023-11-19T01:47:04;2.40;;;2.20;;
10637;SDS011;47007;49.252;8.904;2023-11-19T01:47:47;2.30;;;2.10;;
10637;SDS011;47007;49.252;8.904;2023-11-19T01:48:29;2.30;;;2.10;;
10637;SDS011;47007;49.252;8.904;2023-11-19T01:49:13;1.90;;;1.80;;
10637;SDS011;47007;49.252;8.904;2023-11-19T01:49:56;2.17;;;1.95;;
10637;SDS011;47007;49.252;8.904;2023-11-19T01:50:38;2.60;;;2.20;;
10637;SDS011;47007;49.252;8.904;2023-11-19T01:51:21;2.33;;;1.98;;
10637;SDS011;47007;49.252;8.904;2023-11-19T01:52:03;2.00;;;1.80;;
10637;SDS011;47007;49.252;8.904;2023-11-19T01:52:46;2.38;;;2.17;;
10637;SDS011;47007;49.252;8.904;2023-11-19T01:53:28;2.08;;;1.88;;
10637;SDS011;47007;49.252;8.904;2023-11-19T01:54:10;1.90;;;1.80;;
10637;SDS011;47007;49.252;8.904;2023-11-19T01:54:53;2.00;;;1.90;;
10637;SDS011;47007;49.252;8.904;2023-11-19T01:55:35;1.98;;;1.88;;
10637;SDS011;47007;49.252;8.904;2023-11-19T01:56:17;1.83;;;1.73;;
10637;SDS011;47007;49.252;8.904;2023-11-19T01:56:59;2.38;;;2.17;;
10637;SDS011;47007;49.252;8.904;2023-11-19T01:57:42;1.70;;;1.60;;
10637;SDS011;47007;49.252;8.904;2023-11-19T01:58:24;2.00;;;1.90;;
10637;SDS011;47007;49.252;8.904;2023-11-19T01:59:06;1.70;;;1.60;;
10637;SDS011;47007;49.252;8.904;2023-11-19T01:59:50;2.03;;;1.92;;
10637;SDS011;47007;49.252;8.904;2023-11-19T02:00:33;1.65;;;1.50;;
10637;SDS011;47007;49.252;8.904;2023-11-19T02:01:15;1.80;;;1.70;;
10637;SDS011;47007;49.252;8.904;2023-11-19T02:01:57;1.60;;;1.50;;
10637;SDS011;47007;49.252;8.904;2023-11-19T02:02:42;2.05;;;1.88;;
10637;SDS011;47007;49.252;8.904;2023-11-19T02:03:26;1.80;;;1.70;;
10637;SDS011;47007;49.252;8.904;2023-11-19T02:04:10;1.95;;;1.85;;
10637;SDS011;47007;49.252;8.904;2023-11-19T02:04:53;2.08;;;1.88;;
10637;SDS011;47007;49.252;8.904;2023-11-19T02:05:35;1.33;;;1.23;;
10637;SDS011;47007;49.252;8.904;2023-11-19T02:06:18;1.60;;;1.50;;
10637;SDS011;47007;49.252;8.904;2023-11-19T02:07:00;1.75;;;1.65;;
10637;SDS011;47007;49.252;8.904;2023-11-19T02:07:42;1.95;;;1.52;;
10637;SDS011;47007;49.252;8.904;2023-11-19T02:08:24;2.63;;;2.00;;
10637;SDS011;47007;49.252;8.904;2023-11-19T02:09:05;1.85;;;1.70;;
10637;SDS011;47007;49.252;8.904;2023-11-19T02:09:49;2.00;;;1.90;;
10637;SDS011;47007;49.252;8.904;2023-11-19T02:10:31;1.63;;;1.52;;
10637;SDS011;47007;49.252;8.904;2023-11-19T02:11:14;1.60;;;1.50;;
10637;SDS011;47007;49.252;8.904;2023-11-19T02:11:56;2.30;;;2.10;;
10637;SDS011;47007;49.252;8.904;2023-11-19T02:12:38;1.73;;;1.63;;
10637;SDS011;47007;49.252;8.904;2023-11-19T02:13:24;2.10;;;1.90;;
10637;SDS011;47007;49.252;8.904;2023-11-19T02:14:08;1.70;;;1.60;;
10637;SDS011;47007;49.252;8.904;2023-11-19T02:14:49;1.67;;;1.58;;
10637;SDS011;47007;49.252;8.904;2023-11-19T02:15:31;2.00;;;1.80;;
10637;SDS011;47007;49.252;8.904;2023-11-19T02:16:14;1.70;;;1.60;;
10637;SDS011;47007;49.252;8.904;2023-11-19T02:16:56;2.38;;;1.67;;
10637;SDS011;47007;49.252;8.904;2023-11-19T02:17:38;2.10;;;1.90;;
10637;SDS011;47007;49.252;8.904;2023-11-19T02:18:21;1.85;;;1.75;;
10637;SDS011;47007;49.252;8.904;2023-11-19T02:19:09;1.98;;;1.80;;
10637;SDS011;47007;49.252;8.904;2023-11-19T02:19:52;1.63;;;1.52;;
10637;SDS011;47007;49.252;8.904;2023-11-19T02:20:34;2.38;;;1.70;;
10637;SDS011;47007;49.252;8.904;2023-11-19T02:21:16;2.08;;;1.88;;
10637;SDS011;47007;49.252;8.904;2023-11-19T02:21:59;1.75;;;1.65;;
10637;SDS011;47007;49.252;8.904;2023-11-19T02:22:42;1.65;;;1.55;;
10637;SDS011;47007;49.252;8.904;2023-11-19T02:23:28;2.38;;;2.15;;
10637;SDS011;47007;49.252;8.904;2023-11-19T02:24:11;2.50;;;2.28;;
10637;SDS011;47007;49.252;8.904;2023-11-19T02:24:57;2.38;;;2.08;;
10637;SDS011;47007;49.252;8.904;2023-11-19T02:25:42;2.47;;;2.28;;
10637;SDS011;47007;49.252;8.904;2023-11-19T02:26:26;2.55;;;2.30;;
10637;SDS011;47007;49.252;8.904;2023-11-19T02:27:18;2.20;;;2.10;;
10637;SDS011;47007;49.252;8.904;2023-11-19T02:28:07;2.47;;;2.30;;
10637;SDS011;47007;49.252;8.904;2023-11-19T02:28:49;2.42;;;2.13;;
10637;SDS011;47007;49.252;8.904;2023-11-19T02:29:31;2.47;;;2.28;;
10637;SDS011;47007;49.252;8.904;2023-11-19T02:30:13;2.17;;;1.98;;
10637;SDS011;47007;49.252;8.904;2023-11-19T02:30:56;2.20;;;2.03;;
10637;SDS011;47007;49.252;8.904;2023-11-19T02:31:38;2.40;;;2.20;;
10637;SDS011;47007;49.252;8.904;2023-11-19T02:32:20;2.55;;;2.35;;
10637;SDS011;47007;49.252;8.904;2023-11-19T02:33:02;2.58;;;2.38;;
10637;SDS011;47007;49.252;8.904;2023-11-19T02:33:47;2.85;;;2.58;;
10637;SDS011;47007;49.252;8.904;2023-11-19T02:34:29;2.80;;;2.60;;
10637;SDS011;47007;49.252;8.904;2023-11-19T02:35:11;2.58;;;2.38;;
10637;SDS011;47007;49.252;8.904;2023-11-19T02:35:53;2.40;;;2.30;;
10637;SDS011;47007;49.252;8.904;2023-11-19T02:36:35;2.50;;;2.30;;
10637;SDS011;47007;49.252;8.904;2023-11-19T02:37:17;2.72;;;2.53;;
10637;SDS011;47007;49.252;8.904;2023-11-19T02:38:00;2.35;;;2.15;;
10637;SDS011;47007;49.252;8.904;2023-11-19T02:38:42;2.75;;;2.47;;
10637;SDS011;47007;49.252;8.904;2023-11-19T02:39:24;2.63;;;2.42;;
10637;SDS011;47007;49.252;8.904;2023-11-19T02:40:06;2.83;;;2.63;;
10637;SDS011;47007;49.252;8.904;2023-11-19T02:40:50;2.80;;;2.60;;
10637;SDS011;47007;49.252;8.904;2023-11-19T02:41:32;2.70;;;2.50;;
10637;SDS011;47007;49.252;8.904;2023-11-19T02:42:14;2.70;;;2.50;;
10637;SDS011;47007;49.252;8.904;2023-11-19T02:42:55;3.00;;;2.70;;
10637;SDS011;47007;49.252;8.904;2023-11-19T02:43:38;1.90;;;1.80;;
10637;SDS011;47007;49.252;8.904;2023-11-19T02:44:20;2.22;;;2.05;;
10637;SDS011;47007;49.252;8.904;2023-11-19T02:45:02;2.85;;;2.50;;
10637;SDS011;47007;49.252;8.904;2023-11-19T02:45:48;2.25;;;2.15;;
10637;SDS011;47007;49.252;8.904;2023-11-19T02:46:32;2.53;;;2.33;;
10637;SDS011;47007;49.252;8.904;2023-11-19T02:47:14;2.15;;;2.00;;
10637;SDS011;47007;49.252;8.904;2023-11-19T02:47:55;2.28;;;2.17;;
10637;SDS011;47007;49.252;8.904;2023-11-19T02:48:37;2.17;;;2.08;;
10637;SDS011;47007;49.252;8.904;2023-11-19T02:49:20;2.00;;;1.90;;
10637;SDS011;47007;49.252;8.904;2023-11-19T02:50:02;2.20;;;2.10;;
10637;SDS011;47007;49.252;8.904;2023-11-19T02:50:44;2.38;;;2.25;;
10637;SDS011;47007;49.252;8.904;2023-11-19T02:51:26;3.60;;;3.30;;
10637;SDS011;47007;49.252;8.904;2023-11-19T02:52:09;2.95;;;2.75;;
10637;SDS011;47007;49.252;8.904;2023-11-19T02:52:53;3.00;;;2.80;;
10637;SDS011;47007;49.252;8.904;2023-11-19T02:53:35;3.88;;;3.58;;
10637;SDS011;47007;49.252;8.904;2023-11-19T02:54:18;3.13;;;2.92;;
10637;SDS011;47007;49.252;8.904;2023-11-19T02:55:01;3.00;;;2.70;;
10637;SDS011;47007;49.252;8.904;2023-11-19T02:55:42;2.90;;;2.70;;
10637;SDS011;47007;49.252;8.904;2023-11-19T02:56:29;2.70;;;2.50;;
10637;SDS011;47007;49.252;8.904;2023-11-19T02:57:16;2.90;;;2.67;;
10637;SDS011;47007;49.252;8.904;2023-11-19T02:58:03;3.03;;;2.83;;
10637;SDS011;47007;49.252;8.904;2023-11-19T02:58:51;3.15;;;2.67;;
10637;SDS011;47007;49.252;8.904;2023-11-19T02:59:35;2.90;;;2.70;;
10637;SDS011;47007;49.252;8.904;2023-11-19T03:00:21;3.20;;;2.90;;
10637;SDS011;47007;49.252;8.904;2023-11-19T03:01:13;2.92;;;2.72;;
10637;SDS011;47007;49.252;8.904;2023-11-19T03:02:05;3.00;;;2.80;;
10637;SDS011;47007;49.252;8.904;2023-11-19T03:02:58;2.70;;;2.50;;
10637;SDS011;47007;49.252;8.904;2023-11-19T03:03:40;2.67;;;2.47;;
10637;SDS011;47007;49.252;8.904;2023-11-19T03:04:23;2.60;;;2.40;;
10637;SDS011;47007;49.252;8.904;2023-11-19T03:05:05;2.78;;;2.55;;
10637;SDS011;47007;49.252;8.904;2023-11-19T03:05:48;2.92;;;2.72;;
10637;SDS011;47007;49.252;8.904;2023-11-19T03:06:30;2.55;;;2.38;;
10637;SDS011;47007;49.252;8.904;2023-11-19T03:07:13;2.70;;;2.50;;
10637;SDS011;47007;49.252;8.904;2023-11-19T03:07:55;2.10;;;1.92;;
10637;SDS011;47007;49.252;8.904;2023-11-19T03:08:36;2.88;;;2.55;;
10637;SDS011;47007;49.252;8.904;2023-11-19T03:09:18;2.78;;;2.42;;
10637;SDS011;47007;49.252;8.904;2023-11-19T03:10:00;2.47;;;2.28;;
10637;SDS011;47007;49.252;8.904;2023-11-19T03:10:42;2.25;;;2.15;;
10637;SDS011;47007;49.252;8.904;2023-11-19T03:11:24;2.50;;;2.40;;
10637;SDS011;47007;49.252;8.904;2023-11-19T03:12:06;2.55;;;2.35;;
10637;SDS011;47007;49.252;8.904;2023-11-19T03:12:48;2.60;;;2.40;;
10637;SDS011;47007;49.252;8.904;2023-11-19T03:13:30;2.58;;;2.33;;
10637;SDS011;47007;49.252;8.904;2023-11-19T03:14:12;2.90;;;2.70;;
10637;SDS011;47007;49.252;8.904;2023-11-19T03:14:54;2.47;;;2.30;;
10637;SDS011;47007;49.252;8.904;2023-11-19T03:15:36;2.83;;;2.63;;
10637;SDS011;47007;49.252;8.904;2023-11-19T03:16:18;2.38;;;2.28;;
10637;SDS011;47007;49.252;8.904;2023-11-19T03:17:00;3.33;;;3.13;;
10637;SDS011;47007;49.252;8.904;2023-11-19T03:17:43;3.08;;;2.88;;
10637;SDS011;47007;49.252;8.904;2023-11-19T03:18:25;2.38;;;2.28;;
10637;SDS011;47007;49.252;8.904;2023-11-19T03:19:07;2.65;;;2.45;;
10637;SDS011;47007;49.252;8.904;2023-11-19T03:19:48;2.50;;;2.30;;
10637;SDS011;47007;49.252;8.904;2023-11-19T03:20:30;2.20;;;2.00;;
10637;SDS011;47007;49.252;8.904;2023-11-19T03:21:12;2.25;;;2.13;;
10637;SDS011;47007;49.252;8.904;2023-11-19T03:21:55;2.63;;;2.42;;
10637;SDS011;47007;49.252;8.904;2023-11-19T03:22:37;2.13;;;2.03;;
10637;SDS011;47007;49.252;8.904;2023-11-19T03:23:19;2.13;;;2.03;;
10637;SDS011;47007;49.252;8.904;2023-11-19T03:24:01;2.10;;;2.00;;
10637;SDS011;47007;49.252;8.904;2023-11-19T03:24:43;2.42;;;2.22;;
10637;SDS011;47007;49.252;8.904;2023-11-19T03:25:25;2.42;;;2.22;;
10637;SDS011;47007;49.252;8.904;2023-11-19T03:26:09;2.13;;;2.03;;
10637;SDS011;47007;49.252;8.904;2023-11-19T03:26:51;1.95;;;1.85;;
10637;SDS011;47007;49.252;8.904;2023-11-19T03:27:36;3.15;;;2.53;;
10637;SDS011;47007;49.252;8.904;2023-11-19T03:28:23;1.60;;;1.50;;
10637;SDS011;47007;49.252;8.904;2023-11-19T03:29:04;1.95;;;1.85;;
10637;SDS011;47007;49.252;8.904;2023-11-19T03:29:46;1.48;;;1.38;;
10637;SDS011;47007;49.252;8.904;2023-11-19T03:30:28;1.20;;;1.10;;
10637;SDS011;47007;49.252;8.904;2023-11-19T03:31:13;1.10;;;1.00;;
10637;SDS011;47007;49.252;8.904;2023-11-19T03:31:55;1.35;;;0.93;;
10637;SDS011;47007;49.252;8.904;2023-11-19T03:32:38;1.35;;;0.90;;
10637;SDS011;47007;49.252;8.904;2023-11-19T03:33:20;1.00;;;0.60;;
10637;SDS011;47007;49.252;8.904;2023-11-19T03:34:02;0.85;;;0.57;;
10637;SDS011;47007;49.252;8.904;2023-11-19T03:34:44;0.40;;;0.40;;
10637;SDS011;47007;49.252;8.904;2023-11-19T03:35:26;0.88;;;0.60;;
10637;SDS011;47007;49.252;8.904;2023-11-19T03:36:09;0.73;;;0.30;;
10637;SDS011;47007;49.252;8.904;2023-11-19T03:36:51;0.65;;;0.38;;
10637;SDS011;47007;49.252;8.904;2023-11-19T03:37:32;0.30;;;0.20;;
10637;SDS011;47007;49.252;8.904;2023-11-19T03:38:14;0.20;;;0.20;;
10637;SDS011;47007;49.252;8.904;2023-11-19T03:38:56;0.30;;;0.20;;
10637;SDS011;47007;49.252;8.904;2023-11-19T03:39:38;0.20;;;0.20;;
10637;SDS011;47007;49.252;8.904;2023-11-19T03:40:20;0.98;;;0.30;;
10637;SDS011;47007;49.252;8.904;2023-11-19T03:41:09;0.30;;;0.30;;
10637;SDS011;47007;49.252;8.904;2023-11-19T03:41:54;1.13;;;0.30;;
10637;SDS011;47007;49.252;8.904;2023-11-19T03:42:36;0.32;;;0.20;;
10637;SDS011;47007;49.252;8.904;2023-11-19T03:43:18;0.73;;;0.20;;
10637;SDS011;47007;49.252;8.904;2023-11-19T03:44:01;0.20;;;0.20;;
10637;SDS011;47007;49.252;8.904;2023-11-19T03:44:42;0.10;;;0.10;;
10637;SDS011;47007;49.252;8.904;2023-11-19T03:45:24;0.20;;;0.20;;
10637;SDS011;47007;49.252;8.904;2023-11-19T03:46:18;0.57;;;0.20;;
10637;SDS011;47007;49.252;8.904;2023-11-19T03:47:01;0.20;;;0.20;;
10637;SDS011;47007;49.252;8.904;2023-11-19T03:47:43;1.25;;;0.30;;
10637;SDS011;47007;49.252;8.904;2023-11-19T03:48:25;0.20;;;0.20;;
10637;SDS011;47007;49.252;8.904;2023-11-19T03:49:06;0.50;;;0.30;;
10637;SDS011;47007;49.252;8.904;2023-11-19T03:49:49;0.10;;;0.10;;
10637;SDS011;47007;49.252;8.904;2023-11-19T03:50:31;0.40;;;0.20;;
10637;SDS011;47007;49.252;8.904;2023-11-19T03:51:13;0.52;;;0.15;;
10637;SDS011;47007;49.252;8.904;2023-11-19T03:51:56;0.45;;;0.43;;
10637;SDS011;47007;49.252;8.904;2023-11-19T03:52:38;0.28;;;0.20;;
10637;SDS011;47007;49.252;8.904;2023-11-19T03:53:23;0.20;;;0.20;;
10637;SDS011;47007;49.252;8.904;2023-11-19T03:54:06;1.17;;;0.30;;
10637;SDS011;47007;49.252;8.904;2023-11-19T03:54:48;0.30;;;0.20;;
10637;SDS011;47007;49.252;8.904;2023-11-19T03:55:29;0.20;;;0.20;;
10637;SDS011;47007;49.252;8.904;2023-11-19T03:56:12;0.50;;;0.10;;
10637;SDS011;47007;49.252;8.904;2023-11-19T03:56:54;0.20;;;0.10;;
10637;SDS011;47007;49.252;8.904;2023-11-19T03:57:36;0.20;;;0.10;;
10637;SDS011;47007;49.252;8.904;2023-11-19T03:58:18;0.10;;;0.10;;
10637;SDS011;47007;49.252;8.904;2023-11-19T03:58:59;0.35;;;0.10;;
10637;SDS011;47007;49.252;8.904;2023-11-19T03:59:41;0.40;;;0.20;;
10637;SDS011;47007;49.252;8.904;2023-11-19T04:00:23;0.85;;;0.10;;
10637;SDS011;47007;49.252;8.904;2023-11-19T04:01:05;0.13;;;0.10;;
10637;SDS011;47007;49.252;8.904;2023-11-19T04:01:48;0.25;;;0.20;;
10637;SDS011;47007;49.252;8.904;2023-11-19T04:02:30;0.22;;;0.10;;
10637;SDS011;47007;49.252;8.904;2023-11-19T04:03:12;0.40;;;0.20;;
10637;SDS011;47007;49.252;8.904;2023-11-19T04:03:53;0.20;;;0.13;;
10637;SDS011;47007;49.252;8.904;2023-11-19T04:04:37;0.10;;;0.10;;
10637;SDS011;47007;49.252;8.904;2023-11-19T04:05:20;0.63;;;0.20;;
10637;SDS011;47007;49.252;8.904;2023-11-19T04:06:02;0.60;;;0.20;;
10637;SDS011;47007;49.252;8.904;2023-11-19T04:06:44;0.10;;;0.10;;
10637;SDS011;47007;49.252;8.904;2023-11-19T04:07:25;0.28;;;0.10;;
10637;SDS011;47007;49.252;8.904;2023-11-19T04:08:07;0.45;;;0.10;;
10637;SDS011;47007;49.252;8.904;2023-11-19T04:08:49;0.35;;;0.13;;
10637;SDS011;47007;49.252;8.904;2023-11-19T04:09:32;0.38;;;0.10;;
10637;SDS011;47007;49.252;8.904;2023-11-19T04:10:18;0.45;;;0.17;;
10637;SDS011;47007;49.252;8.904;2023-11-19T04:11:04;0.10;;;0.10;;
10637;SDS011;47007;49.252;8.904;2023-11-19T04:11:46;0.15;;;0.10;;
10637;SDS011;47007;49.252;8.904;2023-11-19T04:12:28;0.13;;;0.10;;
10637;SDS011;47007;49.252;8.904;2023-11-19T04:13:10;0.82;;;0.20;;
10637;SDS011;47007;49.252;8.904;2023-11-19T04:13:52;0.63;;;0.20;;
10637;SDS011;47007;49.252;8.904;2023-11-19T04:14:33;0.60;;;0.20;;
10637;SDS011;47007;49.252;8.904;2023-11-19T04:15:15;0.20;;;0.20;;
10637;SDS011;47007;49.252;8.904;2023-11-19T04:15:57;0.60;;;0.20;;
10637;SDS011;47007;49.252;8.904;2023-11-19T04:16:39;0.38;;;0.30;;
10637;SDS011;47007;49.252;8.904;2023-11-19T04:17:21;0.15;;;0.15;;
10637;SDS011;47007;49.252;8.904;2023-11-19T04:18:04;0.10;;;0.10;;
10637;SDS011;47007;49.252;8.904;2023-11-19T04:18:46;0.60;;;0.10;;